Time;durP1;ratioP1;P1;durP2;ratioP2;P2;SDS_P1;SDS_P2;PMS_P1;PMS_P2;Temp;Humidity;BMP_temperature;BMP_pressure;BME280_temperature;BME280_humidity;BME280_pressure;Samples;Min_cycle;Max_cycle;Signal;HPM_P1;HPM_P2
2023/09/05 00:01:09;;;;;;;4.25;3.13;;;;;;;;;;4994439;28;20030;-83
2023/09/05 00:03:35;;;;;;;5.32;3.60;;;;;;;;;;4966558;28;20120;-83
2023/09/05 00:06:04;;;;;;;4.90;3.20;;;;;;;;;;4969429;28;20434;-82
2023/09/05 00:08:30;;;;;;;5.40;3.10;;;;;;;;;;4967314;28;20030;-83
2023/09/05 00:10:59;;;;;;;5.13;3.55;;;;;;;;;;4968114;28;20391;-82
2023/09/05 00:13:26;;;;;;;4.80;3.40;;;;;;;;;;4966424;28;20394;-83
2023/09/05 00:15:52;;;;;;;7.32;3.72;;;;;;;;;;4983857;28;20033;-83
2023/09/05 00:18:17;;;;;;;6.47;3.70;;;;;;;;;;4964415;28;20026;-84
2023/09/05 00:20:44;;;;;;;4.20;3.05;;;;;;;;;;4967682;28;20026;-82
2023/09/05 00:23:09;;;;;;;4.65;3.30;;;;;;;;;;4986323;28;20088;-83
2023/09/05 00:25:34;;;;;;;4.68;3.22;;;;;;;;;;4992786;28;20470;-82
2023/09/05 00:28:03;;;;;;;5.35;3.17;;;;;;;;;;4967330;28;20022;-83
2023/09/05 00:30:28;;;;;;;4.43;3.13;;;;;;;;;;4976284;28;20373;-82
2023/09/05 00:32:54;;;;;;;4.85;3.60;;;;;;;;;;4967911;28;20031;-82
2023/09/05 00:35:19;;;;;;;5.72;3.53;;;;;;;;;;4975912;28;20026;-88
2023/09/05 00:37:45;;;;;;;5.47;3.33;;;;;;;;;;4978887;28;20022;-88
2023/09/05 00:40:11;;;;;;;5.22;3.45;;;;;;;;;;4979242;28;20062;-87
2023/09/05 00:42:36;;;;;;;5.00;3.47;;;;;;;;;;4995897;28;20064;-88
2023/09/05 00:45:03;;;;;;;4.53;3.17;;;;;;;;;;4969977;28;20026;-87
2023/09/05 00:47:30;;;;;;;6.57;3.70;;;;;;;;;;4976939;28;20042;-87
2023/09/05 00:49:56;;;;;;;4.47;3.63;;;;;;;;;;4981177;28;20121;-85
2023/09/05 00:52:24;;;;;;;6.68;4.00;;;;;;;;;;4970342;28;20113;-88
2023/09/05 00:54:50;;;;;;;4.20;3.33;;;;;;;;;;4986860;28;20117;-87
2023/09/05 00:57:17;;;;;;;6.25;3.55;;;;;;;;;;4993281;28;20037;-86
2023/09/05 00:59:43;;;;;;;4.55;3.17;;;;;;;;;;4995802;28;20030;-87
2023/09/05 01:02:09;;;;;;;5.10;3.70;;;;;;;;;;4996459;28;20035;-86
2023/09/05 01:04:34;;;;;;;4.70;3.00;;;;;;;;;;4986825;28;20052;-88
2023/09/05 01:07:12;;;;;;;4.90;3.55;;;;;;;;;;4993640;28;20026;-89
2023/09/05 01:10:05;;;;;;;5.93;3.40;;;;;;;;;;4988093;28;20034;-90
2023/09/05 01:12:30;;;;;;;4.90;3.33;;;;;;;;;;4988330;28;20826;-92
2023/09/05 01:14:56;;;;;;;5.82;3.80;;;;;;;;;;4991058;28;20069;-88
2023/09/05 01:17:21;;;;;;;8.30;4.00;;;;;;;;;;4987452;28;20746;-91
2023/09/05 01:19:50;;;;;;;5.40;3.72;;;;;;;;;;4989817;28;20122;-91
2023/09/05 01:22:30;;;;;;;4.85;3.28;;;;;;;;;;4985189;28;20390;-91
2023/09/05 01:24:56;;;;;;;4.53;3.38;;;;;;;;;;4990810;28;20038;-90
2023/09/05 01:27:24;;;;;;;5.03;3.63;;;;;;;;;;4989927;28;20025;-91
2023/09/05 01:29:50;;;;;;;5.72;3.92;;;;;;;;;;4990810;28;20120;-92
2023/09/05 01:32:17;;;;;;;5.82;3.55;;;;;;;;;;4993269;28;20494;-91
2023/09/05 01:34:43;;;;;;;5.10;3.53;;;;;;;;;;4989109;28;20022;-83
2023/09/05 01:37:14;;;;;;;5.53;3.72;;;;;;;;;;4983251;28;20096;-83
2023/09/05 01:39:40;;;;;;;5.25;3.90;;;;;;;;;;4984635;28;20080;-82
2023/09/05 01:42:06;;;;;;;5.72;3.60;;;;;;;;;;5002232;28;20031;-82
2023/09/05 01:44:34;;;;;;;4.85;3.38;;;;;;;;;;4983888;28;20080;-83
2023/09/05 01:47:00;;;;;;;5.05;3.55;;;;;;;;;;4981268;28;20660;-83
2023/09/05 01:49:25;;;;;;;5.68;3.58;;;;;;;;;;4982162;28;20022;-88
2023/09/05 01:51:51;;;;;;;5.68;3.70;;;;;;;;;;4981865;28;20019;-85
2023/09/05 01:54:16;;;;;;;6.30;3.67;;;;;;;;;;4984180;28;20033;-87
2023/09/05 01:56:41;;;;;;;5.53;3.40;;;;;;;;;;4988201;28;20048;-87
2023/09/05 01:59:08;;;;;;;5.53;3.60;;;;;;;;;;4981668;28;20030;-88
2023/09/05 02:01:33;;;;;;;4.75;3.25;;;;;;;;;;5002328;28;20034;-87
2023/09/05 02:03:59;;;;;;;5.72;3.83;;;;;;;;;;4985029;28;20080;-88
2023/09/05 02:06:24;;;;;;;5.78;4.00;;;;;;;;;;4987463;28;20026;-87
2023/09/05 02:08:50;;;;;;;6.72;3.72;;;;;;;;;;4989092;28;20029;-88
2023/09/05 02:11:16;;;;;;;6.93;3.70;;;;;;;;;;5002792;28;20034;-86
2023/09/05 02:13:41;;;;;;;6.13;3.50;;;;;;;;;;4984489;28;20044;-88
2023/09/05 02:16:07;;;;;;;5.28;3.53;;;;;;;;;;4988330;28;20030;-87
2023/09/05 02:18:32;;;;;;;5.32;3.47;;;;;;;;;;4981806;28;20048;-89
2023/09/05 02:21:01;;;;;;;4.90;3.60;;;;;;;;;;5008999;28;20030;-89
2023/09/05 02:23:27;;;;;;;4.72;3.42;;;;;;;;;;4993147;28;20057;-89
2023/09/05 02:25:57;;;;;;;4.32;2.92;;;;;;;;;;4988069;28;20449;-88
2023/09/05 02:28:22;;;;;;;4.88;3.42;;;;;;;;;;4988924;28;20113;-88
2023/09/05 02:30:48;;;;;;;4.68;3.30;;;;;;;;;;5012009;28;20125;-88
2023/09/05 02:33:13;;;;;;;6.75;3.45;;;;;;;;;;4994060;28;20121;-87
2023/09/05 02:35:38;;;;;;;5.15;3.60;;;;;;;;;;4997154;28;20032;-88
2023/09/05 02:38:04;;;;;;;5.47;3.83;;;;;;;;;;5012124;28;20034;-89
2023/09/05 02:40:29;;;;;;;5.07;3.65;;;;;;;;;;5013173;28;20034;-87
2023/09/05 02:42:55;;;;;;;5.35;3.70;;;;;;;;;;4988739;28;20140;-88
2023/09/05 02:45:20;;;;;;;5.00;3.47;;;;;;;;;;5006091;28;20148;-89
2023/09/05 02:47:46;;;;;;;5.97;3.67;;;;;;;;;;4986780;28;20087;-87
2023/09/05 02:50:11;;;;;;;5.15;3.83;;;;;;;;;;5003812;28;20175;-88
2023/09/05 02:52:38;;;;;;;5.90;4.30;;;;;;;;;;5000300;28;20025;-88
2023/09/05 02:55:04;;;;;;;5.22;3.65;;;;;;;;;;4983454;28;20600;-89
2023/09/05 02:57:29;;;;;;;5.30;3.80;;;;;;;;;;4999685;28;20113;-91
2023/09/05 02:59:55;;;;;;;5.95;3.67;;;;;;;;;;5001019;28;21728;-91
2023/09/05 03:02:24;;;;;;;6.97;3.92;;;;;;;;;;4985800;28;20485;-91
2023/09/05 03:04:53;;;;;;;4.75;3.47;;;;;;;;;;5005063;28;20038;-88
2023/09/05 03:07:22;;;;;;;6.25;3.80;;;;;;;;;;5002325;28;20486;-90
2023/09/05 03:09:51;;;;;;;4.78;3.58;;;;;;;;;;5004689;28;20116;-88
2023/09/05 03:12:16;;;;;;;4.88;3.30;;;;;;;;;;4985324;28;20028;-91
2023/09/05 03:14:42;;;;;;;4.50;3.25;;;;;;;;;;4984766;28;20038;-91
2023/09/05 03:17:09;;;;;;;5.30;3.70;;;;;;;;;;4997352;28;20425;-87
2023/09/05 03:19:37;;;;;;;4.88;3.50;;;;;;;;;;4978926;28;20422;-86
2023/09/05 03:22:03;;;;;;;5.97;4.53;;;;;;;;;;4995772;28;20607;-89
2023/09/05 03:24:28;;;;;;;6.75;3.67;;;;;;;;;;4994134;28;20080;-88
2023/09/05 03:26:54;;;;;;;6.10;3.92;;;;;;;;;;4981681;28;20033;-87
2023/09/05 03:29:19;;;;;;;5.30;3.72;;;;;;;;;;4980917;28;20029;-88
2023/09/05 03:31:45;;;;;;;5.50;3.83;;;;;;;;;;4985751;28;20090;-89
2023/09/05 03:34:10;;;;;;;7.70;3.60;;;;;;;;;;4984668;28;20685;-86
2023/09/05 03:36:36;;;;;;;9.00;3.67;;;;;;;;;;5002718;28;20377;-87
2023/09/05 03:39:02;;;;;;;6.35;4.07;;;;;;;;;;4987849;28;20497;-88
2023/09/05 03:41:28;;;;;;;5.72;3.38;;;;;;;;;;5010306;28;20061;-88
2023/09/05 03:43:54;;;;;;;5.90;3.40;;;;;;;;;;4988997;28;20053;-88
2023/09/05 03:46:19;;;;;;;6.30;3.65;;;;;;;;;;4985156;28;20068;-89
2023/09/05 03:48:45;;;;;;;5.78;3.78;;;;;;;;;;5004434;28;20036;-88
2023/09/05 03:51:11;;;;;;;6.95;3.97;;;;;;;;;;5004193;28;20021;-86
2023/09/05 03:53:37;;;;;;;5.88;3.78;;;;;;;;;;5000548;28;20092;-88
2023/09/05 03:56:02;;;;;;;5.45;3.80;;;;;;;;;;4988320;28;20038;-86
2023/09/05 03:58:27;;;;;;;5.85;3.97;;;;;;;;;;4982832;28;20029;-90
2023/09/05 04:00:57;;;;;;;6.05;4.10;;;;;;;;;;4966916;28;20125;-90
2023/09/05 04:03:22;;;;;;;6.85;4.15;;;;;;;;;;4967177;28;20061;-88
2023/09/05 04:05:48;;;;;;;6.45;4.60;;;;;;;;;;4984960;28;20030;-88
2023/09/05 04:08:13;;;;;;;5.45;3.70;;;;;;;;;;4964467;28;20034;-86
2023/09/05 04:10:39;;;;;;;5.00;3.33;;;;;;;;;;4965346;28;20034;-91
2023/09/05 04:13:04;;;;;;;6.35;3.70;;;;;;;;;;4963177;28;20023;-92
2023/09/05 04:15:30;;;;;;;5.05;3.63;;;;;;;;;;4966969;28;20027;-90
2023/09/05 04:17:55;;;;;;;4.80;3.53;;;;;;;;;;4980520;28;21340;-91
2023/09/05 04:20:21;;;;;;;5.65;3.67;;;;;;;;;;4964596;28;20125;-88
2023/09/05 04:22:46;;;;;;;6.85;4.40;;;;;;;;;;4966529;28;20034;-91
2023/09/05 04:25:11;;;;;;;5.82;3.38;;;;;;;;;;4979828;28;20034;-91
2023/09/05 04:27:37;;;;;;;5.68;3.53;;;;;;;;;;4967195;28;20057;-90
2023/09/05 04:30:03;;;;;;;6.45;3.85;;;;;;;;;;4964392;28;20034;-92
2023/09/05 04:32:31;;;;;;;5.53;3.50;;;;;;;;;;4979493;28;20022;-88
2023/09/05 04:34:58;;;;;;;4.75;3.13;;;;;;;;;;4973677;28;20022;-91
2023/09/05 04:37:24;;;;;;;5.40;3.80;;;;;;;;;;4963439;28;20030;-91
2023/09/05 04:39:49;;;;;;;4.65;3.35;;;;;;;;;;4967086;28;20041;-92
2023/09/05 04:42:15;;;;;;;6.07;3.35;;;;;;;;;;4967100;28;21532;-92
2023/09/05 04:44:40;;;;;;;5.15;3.30;;;;;;;;;;4965675;28;20041;-88
2023/09/05 04:47:25;;;;;;;5.20;3.95;;;;;;;;;;4979736;28;20030;-92
2023/09/05 04:50:00;;;;;;;5.32;3.38;;;;;;;;;;4968330;28;20033;-92
2023/09/05 04:52:30;;;;;;;6.22;3.53;;;;;;;;;;4979009;28;20042;-92
2023/09/05 04:54:56;;;;;;;5.15;3.28;;;;;;;;;;4980683;28;20034;-90
2023/09/05 04:57:24;;;;;;;5.15;3.53;;;;;;;;;;4981468;28;20105;-91
2023/09/05 04:59:56;;;;;;;4.55;3.00;;;;;;;;;;4964975;28;20022;-89
2023/09/05 05:02:27;;;;;;;5.35;3.67;;;;;;;;;;4980484;28;20601;-91
2023/09/05 05:04:53;;;;;;;4.93;3.20;;;;;;;;;;4978041;28;20034;-82
2023/09/05 05:07:19;;;;;;;5.35;3.33;;;;;;;;;;4979917;28;20129;-82
2023/09/05 05:09:45;;;;;;;4.20;3.20;;;;;;;;;;4960911;28;20094;-82
2023/09/05 05:12:10;;;;;;;4.90;3.25;;;;;;;;;;4960658;28;20027;-82
2023/09/05 05:14:36;;;;;;;5.00;3.38;;;;;;;;;;4964155;28;20041;-82
2023/09/05 05:17:02;;;;;;;5.30;3.30;;;;;;;;;;4963319;28;20109;-83
2023/09/05 05:19:28;;;;;;;4.70;3.20;;;;;;;;;;4970078;28;20026;-82
2023/09/05 05:21:56;;;;;;;5.80;3.50;;;;;;;;;;4967456;28;20027;-82
2023/09/05 05:24:22;;;;;;;6.28;3.55;;;;;;;;;;4982917;28;20077;-82
2023/09/05 05:26:48;;;;;;;4.63;3.10;;;;;;;;;;4968852;28;20087;-82
2023/09/05 05:29:13;;;;;;;4.57;3.13;;;;;;;;;;4985001;28;20417;-83
2023/09/05 05:31:42;;;;;;;6.95;3.35;;;;;;;;;;4958366;28;20030;-83
2023/09/05 05:34:07;;;;;;;4.80;3.20;;;;;;;;;;4969488;28;20041;-84
2023/09/05 05:36:33;;;;;;;6.30;3.20;;;;;;;;;;4987347;28;20033;-90
2023/09/05 05:38:59;;;;;;;5.18;2.92;;;;;;;;;;4988659;28;20030;-91
2023/09/05 05:41:26;;;;;;;4.72;3.33;;;;;;;;;;4970447;28;20118;-90
2023/09/05 05:43:51;;;;;;;5.20;3.33;;;;;;;;;;4970731;28;20023;-92
2023/09/05 05:46:19;;;;;;;6.00;3.10;;;;;;;;;;4988942;28;20048;-92
2023/09/05 05:48:46;;;;;;;5.10;3.20;;;;;;;;;;4971603;28;20152;-90
2023/09/05 05:51:12;;;;;;;4.82;3.20;;;;;;;;;;4986661;28;20038;-90
2023/09/05 05:53:38;;;;;;;5.10;3.28;;;;;;;;;;4968864;28;20034;-92
2023/09/05 05:56:04;;;;;;;5.50;3.33;;;;;;;;;;4988564;28;20496;-91
2023/09/05 05:58:30;;;;;;;4.60;2.97;;;;;;;;;;4986165;28;20022;-88
2023/09/05 06:00:55;;;;;;;5.65;3.30;;;;;;;;;;4967918;28;20041;-89
2023/09/05 06:03:21;;;;;;;5.72;3.20;;;;;;;;;;4967155;28;20026;-90
2023/09/05 06:05:48;;;;;;;4.15;2.97;;;;;;;;;;4969940;28;20096;-91
2023/09/05 06:08:14;;;;;;;4.70;3.08;;;;;;;;;;4967460;28;20022;-91
2023/09/05 06:10:39;;;;;;;6.28;3.42;;;;;;;;;;4983236;28;20088;-91
2023/09/05 06:13:08;;;;;;;5.32;2.85;;;;;;;;;;4986664;28;20496;-90
2023/09/05 06:15:37;;;;;;;4.47;2.95;;;;;;;;;;4970476;28;20113;-92
2023/09/05 06:18:04;;;;;;;4.70;2.78;;;;;;;;;;4978927;28;20030;-91
2023/09/05 06:20:32;;;;;;;7.32;3.25;;;;;;;;;;4964351;28;20030;-90
2023/09/05 06:23:04;;;;;;;5.05;2.83;;;;;;;;;;4967561;28;20026;-91
2023/09/05 06:25:30;;;;;;;4.90;2.75;;;;;;;;;;4966596;28;20026;-92
2023/09/05 06:27:55;;;;;;;5.65;2.53;;;;;;;;;;4967108;28;20038;-92
2023/09/05 06:30:22;;;;;;;5.68;2.42;;;;;;;;;;4962028;28;20754;-89
2023/09/05 06:32:48;;;;;;;5.35;2.67;;;;;;;;;;4966537;28;20042;-91
2023/09/05 06:35:13;;;;;;;4.20;2.45;;;;;;;;;;4978456;28;20052;-88
2023/09/05 06:37:39;;;;;;;3.50;2.40;;;;;;;;;;4969931;28;20026;-87
2023/09/05 06:40:09;;;;;;;7.82;2.60;;;;;;;;;;4967829;28;20036;-88
2023/09/05 06:42:37;;;;;;;4.45;2.50;;;;;;;;;;4972711;28;20034;-88
2023/09/05 06:45:07;;;;;;;4.28;2.20;;;;;;;;;;4967670;28;20038;-88
2023/09/05 06:47:33;;;;;;;5.28;2.72;;;;;;;;;;4969012;28;20034;-88
2023/09/05 06:49:59;;;;;;;5.40;2.53;;;;;;;;;;4967039;28;20034;-86
2023/09/05 06:52:25;;;;;;;3.83;2.30;;;;;;;;;;4986877;28;20029;-87
2023/09/05 06:54:50;;;;;;;4.82;2.22;;;;;;;;;;4980323;28;20022;-87
2023/09/05 06:57:17;;;;;;;5.60;2.50;;;;;;;;;;4987847;28;20029;-87
2023/09/05 06:59:42;;;;;;;4.85;2.35;;;;;;;;;;5010897;28;20037;-87
2023/09/05 07:02:07;;;;;;;5.45;2.05;;;;;;;;;;5010075;28;20041;-87
2023/09/05 07:04:34;;;;;;;4.53;2.28;;;;;;;;;;5006910;28;20025;-88
2023/09/05 07:07:01;;;;;;;4.18;2.22;;;;;;;;;;4991461;28;20496;-88
2023/09/05 07:09:27;;;;;;;5.85;2.28;;;;;;;;;;4987904;28;20068;-88
2023/09/05 07:11:52;;;;;;;4.38;2.50;;;;;;;;;;5008462;28;20112;-89
2023/09/05 07:14:21;;;;;;;4.32;2.35;;;;;;;;;;4985915;28;20173;-87
2023/09/05 07:16:47;;;;;;;6.78;2.30;;;;;;;;;;5006010;28;20498;-88
2023/09/05 07:19:12;;;;;;;5.55;2.80;;;;;;;;;;4972634;28;20508;-88
2023/09/05 07:21:40;;;;;;;3.85;2.50;;;;;;;;;;5002976;28;20112;-85
2023/09/05 07:24:07;;;;;;;4.57;2.10;;;;;;;;;;4975946;28;20022;-87
2023/09/05 07:26:38;;;;;;;3.90;2.47;;;;;;;;;;4981762;28;20157;-88
2023/09/05 07:29:12;;;;;;;4.35;2.40;;;;;;;;;;4985550;28;20065;-88
2023/09/05 07:31:42;;;;;;;4.00;2.30;;;;;;;;;;4988562;28;20120;-87
2023/09/05 07:34:08;;;;;;;4.65;2.10;;;;;;;;;;4983220;28;20119;-83
2023/09/05 07:36:36;;;;;;;5.05;2.33;;;;;;;;;;5000887;28;20034;-85
2023/09/05 07:39:04;;;;;;;5.22;2.72;;;;;;;;;;4982945;28;20409;-82
2023/09/05 07:41:31;;;;;;;4.97;2.20;;;;;;;;;;5003544;28;20045;-83
2023/09/05 07:43:56;;;;;;;4.55;2.15;;;;;;;;;;5004101;28;20037;-84
2023/09/05 07:46:22;;;;;;;3.47;2.20;;;;;;;;;;5003533;28;20398;-86
2023/09/05 07:48:47;;;;;;;3.47;2.10;;;;;;;;;;4987570;28;20025;-83
2023/09/05 07:51:13;;;;;;;4.07;2.00;;;;;;;;;;5001710;28;20393;-82
2023/09/05 07:53:38;;;;;;;3.50;2.17;;;;;;;;;;4984626;28;20428;-84
2023/09/05 07:56:04;;;;;;;4.50;2.03;;;;;;;;;;4966095;28;20282;-83
2023/09/05 07:58:30;;;;;;;5.28;2.28;;;;;;;;;;4969164;28;20062;-82
2023/09/05 08:00:56;;;;;;;3.22;2.00;;;;;;;;;;4958464;28;20517;-85
2023/09/05 08:03:25;;;;;;;7.07;2.53;;;;;;;;;;4964810;28;20064;-83
2023/09/05 08:05:53;;;;;;;4.75;2.20;;;;;;;;;;4981049;28;20362;-82
2023/09/05 08:08:19;;;;;;;3.92;2.00;;;;;;;;;;4962238;28;20109;-82
2023/09/05 08:10:45;;;;;;;5.28;2.13;;;;;;;;;;4954307;28;20034;-84
2023/09/05 08:13:12;;;;;;;4.88;2.20;;;;;;;;;;4981496;28;20088;-83
2023/09/05 08:15:38;;;;;;;6.20;2.15;;;;;;;;;;4979847;28;20573;-83
2023/09/05 08:18:04;;;;;;;5.20;2.65;;;;;;;;;;4964560;28;20319;-90
2023/09/05 08:20:30;;;;;;;3.70;2.20;;;;;;;;;;4985250;28;20081;-86
2023/09/05 08:22:55;;;;;;;5.32;1.98;;;;;;;;;;4968265;28;20457;-83
2023/09/05 08:25:24;;;;;;;3.40;2.15;;;;;;;;;;4964901;28;20077;-82
2023/09/05 08:27:50;;;;;;;3.45;1.95;;;;;;;;;;4969416;28;20553;-88
2023/09/05 08:30:16;;;;;;;3.08;1.90;;;;;;;;;;4973763;28;20019;-88
2023/09/05 08:32:43;;;;;;;4.00;2.00;;;;;;;;;;4988370;28;20026;-88
2023/09/05 08:35:09;;;;;;;5.55;2.38;;;;;;;;;;4972702;28;20125;-89
2023/09/05 08:37:35;;;;;;;4.65;1.98;;;;;;;;;;4991182;28;20073;-87
2023/09/05 08:40:01;;;;;;;3.47;1.85;;;;;;;;;;4974380;28;20037;-88
2023/09/05 08:42:29;;;;;;;3.92;2.15;;;;;;;;;;4991308;28;20130;-92
2023/09/05 08:44:56;;;;;;;4.72;2.17;;;;;;;;;;4974003;28;20022;-82
2023/09/05 08:47:21;;;;;;;3.97;2.15;;;;;;;;;;4972678;28;20084;-83
2023/09/05 08:49:47;;;;;;;3.47;2.03;;;;;;;;;;4974471;28;20038;-82
2023/09/05 08:52:14;;;;;;;5.07;1.77;;;;;;;;;;4977170;28;20026;-82
2023/09/05 08:54:39;;;;;;;3.33;1.88;;;;;;;;;;4997794;28;20520;-82
2023/09/05 08:57:05;;;;;;;6.22;2.20;;;;;;;;;;4995283;28;20118;-82
2023/09/05 08:59:32;;;;;;;5.43;2.10;;;;;;;;;;4995461;28;20367;-83
2023/09/05 09:02:01;;;;;;;3.50;2.40;;;;;;;;;;4980728;28;20034;-83
2023/09/05 09:04:27;;;;;;;4.03;1.90;;;;;;;;;;4979416;28;20025;-82
2023/09/05 09:06:55;;;;;;;5.43;1.88;;;;;;;;;;4980083;28;20046;-84
2023/09/05 09:09:34;;;;;;;4.80;1.80;;;;;;;;;;4974415;28;20026;-82
2023/09/05 09:12:00;;;;;;;4.38;2.10;;;;;;;;;;4979656;28;20052;-87
2023/09/05 09:14:26;;;;;;;2.95;1.88;;;;;;;;;;4976651;28;20034;-88
2023/09/05 09:16:51;;;;;;;2.90;1.85;;;;;;;;;;4979587;28;20031;-88
2023/09/05 09:19:16;;;;;;;3.05;1.88;;;;;;;;;;4977661;28;20479;-88
2023/09/05 09:21:42;;;;;;;3.30;1.90;;;;;;;;;;4992816;28;20026;-88
2023/09/05 09:24:08;;;;;;;2.60;1.50;;;;;;;;;;4981332;28;20557;-87
2023/09/05 09:26:36;;;;;;;3.42;1.88;;;;;;;;;;4997627;28;20022;-89
2023/09/05 09:29:06;;;;;;;3.90;1.65;;;;;;;;;;4995893;28;22014;-87
2023/09/05 09:31:32;;;;;;;2.67;1.70;;;;;;;;;;5000099;28;20036;-88
2023/09/05 09:33:57;;;;;;;2.47;1.60;;;;;;;;;;4993042;28;20104;-87
2023/09/05 09:36:31;;;;;;;4.75;1.95;;;;;;;;;;4977614;28;20080;-88
2023/09/05 09:38:56;;;;;;;4.78;1.80;;;;;;;;;;4976823;28;20029;-87
2023/09/05 09:41:22;;;;;;;3.45;1.60;;;;;;;;;;4980549;28;20034;-88
2023/09/05 09:43:53;;;;;;;2.70;1.70;;;;;;;;;;4994355;28;20034;-87
2023/09/05 09:46:19;;;;;;;3.70;1.80;;;;;;;;;;4984095;28;20393;-89
2023/09/05 09:48:47;;;;;;;3.53;2.13;;;;;;;;;;4978936;28;20085;-88
2023/09/05 09:51:13;;;;;;;3.95;1.80;;;;;;;;;;4976221;28;20034;-88
2023/09/05 09:53:39;;;;;;;3.58;1.70;;;;;;;;;;4967960;28;20022;-89
2023/09/05 09:56:12;;;;;;;3.20;1.70;;;;;;;;;;4996303;28;20048;-90
2023/09/05 09:58:45;;;;;;;2.80;1.50;;;;;;;;;;4995525;28;20126;-91
2023/09/05 10:01:12;;;;;;;3.92;1.80;;;;;;;;;;4974146;28;20030;-90
2023/09/05 10:03:44;;;;;;;3.50;1.70;;;;;;;;;;4993698;28;20130;-82
2023/09/05 10:06:10;;;;;;;4.65;1.80;;;;;;;;;;4994888;28;20132;-82
2023/09/05 10:08:36;;;;;;;4.00;1.60;;;;;;;;;;4978195;28;20505;-82
2023/09/05 10:11:02;;;;;;;2.80;1.67;;;;;;;;;;4991767;28;20042;-83
2023/09/05 10:13:32;;;;;;;3.83;1.80;;;;;;;;;;4975348;28;20026;-81
2023/09/05 10:16:01;;;;;;;4.55;1.73;;;;;;;;;;4988250;28;20040;-82
2023/09/05 10:18:27;;;;;;;3.70;1.55;;;;;;;;;;4976647;28;20446;-82
2023/09/05 10:20:55;;;;;;;4.35;1.70;;;;;;;;;;4995424;28;20026;-83
2023/09/05 10:23:23;;;;;;;2.83;1.60;;;;;;;;;;4978168;28;20030;-82
2023/09/05 10:25:49;;;;;;;4.22;1.63;;;;;;;;;;4977052;28;20605;-82
2023/09/05 10:28:14;;;;;;;3.25;1.90;;;;;;;;;;4981824;28;20117;-83
2023/09/05 10:30:43;;;;;;;3.33;1.70;;;;;;;;;;4995516;28;20041;-81
2023/09/05 10:33:09;;;;;;;3.17;1.73;;;;;;;;;;4996268;28;20029;-82
2023/09/05 10:35:35;;;;;;;4.60;1.90;;;;;;;;;;5002366;28;20065;-82
2023/09/05 10:38:02;;;;;;;6.70;1.80;;;;;;;;;;4981936;28;20493;-83
2023/09/05 10:40:38;;;;;;;4.68;1.55;;;;;;;;;;4976702;28;20030;-82
2023/09/05 10:43:18;;;;;;;3.67;1.65;;;;;;;;;;4996172;28;20032;-83
2023/09/05 10:45:43;;;;;;;6.13;1.88;;;;;;;;;;4975994;28;20041;-82
2023/09/05 10:48:12;;;;;;;3.03;1.83;;;;;;;;;;4977211;28;20029;-82
2023/09/05 10:51:10;;;;;;;4.03;1.73;;;;;;;;;;4978942;28;20080;-82
2023/09/05 10:53:47;;;;;;;3.25;1.50;;;;;;;;;;4974111;28;20088;-84
2023/09/05 10:56:39;;;;;;;5.35;1.73;;;;;;;;;;4992789;28;20026;-82
2023/09/05 10:59:07;;;;;;;4.25;1.90;;;;;;;;;;4977065;28;20018;-84
2023/09/05 11:01:33;;;;;;;3.00;1.80;;;;;;;;;;4957799;28;20045;-83
2023/09/05 11:04:03;;;;;;;3.80;1.58;;;;;;;;;;4991387;28;20038;-82
2023/09/05 11:06:31;;;;;;;4.20;1.70;;;;;;;;;;4975813;28;20119;-82
2023/09/05 11:09:06;;;;;;;4.57;1.80;;;;;;;;;;4976096;28;20517;-83
2023/09/05 11:11:32;;;;;;;2.70;1.70;;;;;;;;;;4975908;28;20060;-83
2023/09/05 11:13:57;;;;;;;3.55;1.70;;;;;;;;;;4976112;28;20034;-82
2023/09/05 11:16:27;;;;;;;2.95;1.70;;;;;;;;;;4990825;28;20081;-82
2023/09/05 11:18:56;;;;;;;2.95;1.70;;;;;;;;;;5000347;28;20032;-82
2023/09/05 11:21:23;;;;;;;3.42;1.75;;;;;;;;;;4975658;28;20034;-82
2023/09/05 11:23:55;;;;;;;4.20;1.80;;;;;;;;;;4993353;28;20386;-83
2023/09/05 11:26:23;;;;;;;4.13;2.05;;;;;;;;;;4976908;28;20026;-80
2023/09/05 11:28:51;;;;;;;3.85;1.85;;;;;;;;;;4980225;28;20092;-80
2023/09/05 11:31:16;;;;;;;2.88;1.70;;;;;;;;;;4976093;28;20120;-80
2023/09/05 11:33:43;;;;;;;5.05;2.45;;;;;;;;;;4992805;28;20552;-80
2023/09/05 11:36:09;;;;;;;2.83;1.60;;;;;;;;;;4975743;28;20034;-80
2023/09/05 11:38:46;;;;;;;3.42;1.73;;;;;;;;;;4982553;28;20363;-80
2023/09/05 11:41:12;;;;;;;2.78;1.70;;;;;;;;;;4980452;28;20072;-80
2023/09/05 11:43:53;;;;;;;4.65;1.65;;;;;;;;;;4975292;28;20057;-79
2023/09/05 11:46:20;;;;;;;3.65;1.60;;;;;;;;;;4989356;28;20030;-80
2023/09/05 11:48:48;;;;;;;3.65;1.40;;;;;;;;;;4993691;28;20117;-80
2023/09/05 11:51:14;;;;;;;2.63;1.50;;;;;;;;;;4977934;28;20025;-88
2023/09/05 11:53:44;;;;;;;3.15;1.45;;;;;;;;;;4978493;28;20474;-88
2023/09/05 11:56:10;;;;;;;3.50;1.40;;;;;;;;;;4977097;28;20424;-91
2023/09/05 11:58:36;;;;;;;4.55;1.70;;;;;;;;;;4988351;28;20026;-91
2023/09/05 12:01:02;;;;;;;2.85;1.70;;;;;;;;;;4977283;28;20496;-90
2023/09/05 12:03:41;;;;;;;4.18;1.55;;;;;;;;;;4988331;28;20031;-91
2023/09/05 12:06:08;;;;;;;3.45;1.48;;;;;;;;;;4991897;28;20022;-89
2023/09/05 12:08:40;;;;;;;2.67;1.48;;;;;;;;;;4968076;28;20026;-91
2023/09/05 12:11:07;;;;;;;3.25;1.60;;;;;;;;;;4994323;28;20031;-90
2023/09/05 12:13:37;;;;;;;4.22;1.70;;;;;;;;;;4976020;28;20023;-91
2023/09/05 12:16:03;;;;;;;4.10;1.80;;;;;;;;;;4983028;28;20114;-91
2023/09/05 12:18:28;;;;;;;3.03;1.40;;;;;;;;;;4991437;28;20854;-90
2023/09/05 12:20:55;;;;;;;3.83;1.90;;;;;;;;;;4992835;28;20058;-89
2023/09/05 12:23:24;;;;;;;3.13;1.70;;;;;;;;;;4977784;28;20035;-89
2023/09/05 12:25:54;;;;;;;4.40;1.80;;;;;;;;;;4974318;28;20759;-85
2023/09/05 12:28:21;;;;;;;3.47;1.40;;;;;;;;;;4973383;28;20482;-86
2023/09/05 12:30:48;;;;;;;5.88;1.80;;;;;;;;;;4968256;28;20030;-84
2023/09/05 12:33:14;;;;;;;4.18;1.80;;;;;;;;;;4971943;28;20037;-84
2023/09/05 12:35:39;;;;;;;3.50;1.90;;;;;;;;;;4987873;28;20026;-84
2023/09/05 12:38:04;;;;;;;3.53;1.75;;;;;;;;;;4971968;28;20030;-81
2023/09/05 12:40:34;;;;;;;3.03;1.60;;;;;;;;;;4986772;28;20068;-81
2023/09/05 12:43:00;;;;;;;7.25;1.73;;;;;;;;;;4988063;28;20030;-84
2023/09/05 12:45:27;;;;;;;2.55;1.55;;;;;;;;;;4991506;28;20034;-84
2023/09/05 12:47:53;;;;;;;4.05;1.52;;;;;;;;;;4968499;28;20034;-84
2023/09/05 12:50:29;;;;;;;4.97;1.52;;;;;;;;;;4977266;28;20169;-84
2023/09/05 12:52:58;;;;;;;2.90;1.60;;;;;;;;;;4993404;28;20026;-84
2023/09/05 12:55:24;;;;;;;3.67;1.60;;;;;;;;;;4969977;28;20120;-84
2023/09/05 12:57:49;;;;;;;3.63;1.58;;;;;;;;;;5006536;28;20120;-84
2023/09/05 13:00:15;;;;;;;4.57;1.80;;;;;;;;;;4995327;28;20021;-84
2023/09/05 13:02:43;;;;;;;2.67;1.45;;;;;;;;;;4989647;28;20058;-84
2023/09/05 13:05:10;;;;;;;2.78;1.60;;;;;;;;;;4994640;28;20354;-84
2023/09/05 13:07:36;;;;;;;3.58;1.70;;;;;;;;;;5012879;28;20103;-90
2023/09/05 13:10:02;;;;;;;3.53;1.70;;;;;;;;;;5009646;28;20037;-89
2023/09/05 13:12:27;;;;;;;2.83;1.63;;;;;;;;;;4991862;28;20652;-82
2023/09/05 13:14:53;;;;;;;4.00;1.92;;;;;;;;;;5009258;28;20022;-84
2023/09/05 13:17:19;;;;;;;3.25;1.83;;;;;;;;;;4990895;28;20120;-82
2023/09/05 13:19:45;;;;;;;4.32;1.63;;;;;;;;;;4995361;28;20030;-81
2023/09/05 13:22:12;;;;;;;3.70;2.13;;;;;;;;;;4990882;28;20025;-82
2023/09/05 13:24:38;;;;;;;3.00;1.77;;;;;;;;;;4997459;28;20404;-83
2023/09/05 13:27:04;;;;;;;5.18;2.42;;;;;;;;;;4992407;28;20022;-82
2023/09/05 13:29:30;;;;;;;4.70;1.90;;;;;;;;;;5014384;28;20028;-83
2023/09/05 13:31:56;;;;;;;2.50;1.60;;;;;;;;;;4994374;28;20050;-82
2023/09/05 13:34:26;;;;;;;3.30;1.55;;;;;;;;;;5002036;28;20173;-89
2023/09/05 13:36:52;;;;;;;2.88;1.60;;;;;;;;;;5000339;28;20484;-89
2023/09/05 13:39:18;;;;;;;3.75;1.70;;;;;;;;;;5012049;28;20034;-91
2023/09/05 13:41:43;;;;;;;3.15;1.30;;;;;;;;;;5004608;28;20030;-88
2023/09/05 13:44:08;;;;;;;3.20;1.63;;;;;;;;;;5000352;28;20065;-91
2023/09/05 13:46:36;;;;;;;3.00;1.48;;;;;;;;;;5014092;28;20109;-90
2023/09/05 13:49:01;;;;;;;4.97;1.60;;;;;;;;;;4994541;28;20043;-91
2023/09/05 13:51:29;;;;;;;3.47;1.70;;;;;;;;;;4990968;28;20412;-93
2023/09/05 13:53:55;;;;;;;5.32;1.75;;;;;;;;;;5009733;28;20122;-94
2023/09/05 13:56:22;;;;;;;3.67;1.60;;;;;;;;;;4977042;28;20050;-95
2023/09/05 13:58:49;;;;;;;3.30;1.52;;;;;;;;;;4980041;28;20065;-91
2023/09/05 14:01:15;;;;;;;4.07;1.67;;;;;;;;;;4987190;28;20033;-94
2023/09/05 14:03:40;;;;;;;2.72;1.50;;;;;;;;;;4963048;28;20403;-94
2023/09/05 14:06:07;;;;;;;3.40;1.80;;;;;;;;;;4971464;28;20030;-95
2023/09/05 14:08:33;;;;;;;3.30;1.60;;;;;;;;;;4983405;28;20022;-94
2023/09/05 14:10:58;;;;;;;3.92;1.50;;;;;;;;;;4999942;28;20080;-93
2023/09/05 14:13:24;;;;;;;3.60;1.73;;;;;;;;;;4997913;28;20501;-92
2023/09/05 14:15:49;;;;;;;3.05;1.55;;;;;;;;;;4979198;28;20117;-94
2023/09/05 14:18:15;;;;;;;3.60;1.55;;;;;;;;;;4996515;28;20033;-92
2023/09/05 14:20:40;;;;;;;2.90;1.65;;;;;;;;;;4972458;28;20121;-94
2023/09/05 14:23:09;;;;;;;4.55;1.48;;;;;;;;;;4976360;28;20117;-92
2023/09/05 14:25:34;;;;;;;2.65;1.40;;;;;;;;;;4975405;28;20628;-94
2023/09/05 14:28:04;;;;;;;2.50;1.65;;;;;;;;;;4976477;28;20116;-92
2023/09/05 14:30:29;;;;;;;4.53;1.48;;;;;;;;;;4991482;28;20023;-94
2023/09/05 14:32:56;;;;;;;2.13;1.45;;;;;;;;;;4982913;28;20036;-92
2023/09/05 14:35:21;;;;;;;4.40;1.65;;;;;;;;;;4994958;28;20033;-92
2023/09/05 14:37:47;;;;;;;2.58;1.58;;;;;;;;;;4990125;28;20030;-93
2023/09/05 14:40:13;;;;;;;3.08;1.60;;;;;;;;;;4981629;28;20076;-89
2023/09/05 14:42:39;;;;;;;3.42;1.45;;;;;;;;;;4977897;28;20375;-90